createdAt,value
2019-01-12T00:01:45.499Z,13.08
2019-01-12T00:04:12.582Z,12.33
2019-01-12T00:06:39.289Z,13.08
2019-01-12T00:09:06.306Z,13.90
2019-01-12T00:11:33.015Z,15.15
2019-01-12T00:13:59.728Z,14.95
2019-01-12T00:16:26.896Z,14.13
2019-01-12T00:18:54.705Z,14.53
2019-01-12T00:21:21.918Z,14.18
2019-01-12T00:23:48.702Z,14.30
2019-01-12T00:26:15.811Z,13.72
2019-01-12T00:28:42.954Z,14.90
2019-01-12T00:31:09.730Z,14.33
2019-01-12T00:33:36.845Z,15.38
2019-01-12T00:36:03.997Z,14.30
2019-01-12T00:38:30.746Z,12.47
2019-01-12T00:40:57.885Z,12.75
2019-01-12T00:43:24.599Z,12.50
2019-01-12T00:45:52.430Z,10.48
2019-01-12T00:48:19.143Z,10.70
2019-01-12T00:50:46.935Z,11.43
2019-01-12T00:53:14.149Z,10.43
2019-01-12T00:55:41.954Z,8.75
2019-01-12T00:58:09.065Z,9.15
2019-01-12T01:00:36.971Z,9.65
2019-01-12T01:03:03.675Z,6.92
2019-01-12T01:05:30.394Z,6.95
2019-01-12T01:07:57.184Z,7.35
2019-01-12T01:10:23.902Z,7.90
2019-01-12T01:12:50.609Z,8.15
2019-01-12T01:15:17.780Z,8.03
2019-01-12T01:17:44.940Z,6.78
2019-01-12T01:20:11.650Z,8.75
2019-01-12T01:22:38.774Z,9.23
2019-01-12T01:25:05.816Z,8.73
2019-01-12T01:27:32.448Z,8.23
2019-01-12T01:29:59.598Z,7.83
2019-01-12T01:32:26.233Z,9.43
2019-01-12T01:34:52.870Z,9.38
2019-01-12T01:37:19.990Z,9.43
2019-01-12T01:39:47.148Z,7.72
2019-01-12T01:42:14.391Z,6.25
2019-01-12T01:44:41.534Z,9.33
2019-01-12T01:47:08.697Z,9.58
2019-01-12T01:49:35.945Z,6.67
2019-01-12T01:52:02.657Z,9.13
2019-01-12T01:54:29.373Z,8.50
2019-01-12T01:56:56.173Z,9.83
2019-01-12T01:59:23.818Z,9.38
2019-01-12T02:01:50.989Z,9.85
2019-01-12T02:04:18.287Z,9.93
2019-01-12T02:06:45.438Z,6.65
2019-01-12T02:09:12.582Z,10.10
2019-01-12T02:11:39.680Z,9.80
2019-01-12T02:14:07.485Z,10.35
2019-01-12T02:16:34.200Z,10.10
2019-01-12T02:19:01.443Z,10.08
2019-01-12T02:21:28.585Z,10.38
2019-01-12T02:23:55.294Z,9.75
2019-01-12T02:26:22.501Z,10.82
2019-01-12T02:28:49.642Z,10.68
2019-01-12T02:31:16.351Z,10.23
2019-01-12T02:33:43.530Z,9.65
2019-01-12T02:36:10.672Z,7.97
2019-01-12T02:38:37.820Z,8.83
2019-01-12T02:41:04.973Z,8.43
2019-01-12T02:43:32.121Z,8.20
2019-01-12T02:45:59.269Z,9.30
2019-01-12T02:48:27.139Z,9.25
2019-01-12T02:50:54.291Z,9.65
2019-01-12T02:53:21.078Z,9.50
2019-01-12T02:55:48.177Z,9.68
2019-01-12T02:58:15.333Z,8.78
2019-01-12T03:00:42.116Z,10.05
2019-01-12T03:03:09.222Z,9.63
2019-01-12T03:05:36.367Z,9.90
2019-01-12T03:08:03.529Z,9.33
2019-01-12T03:10:30.234Z,9.20
2019-01-12T03:12:56.943Z,9.98
2019-01-12T03:15:23.694Z,7.90
2019-01-12T03:17:50.412Z,8.45
2019-01-12T03:20:17.941Z,8.45
2019-01-12T03:22:45.101Z,8.50
2019-01-12T03:25:17.638Z,8.23
2019-01-12T03:27:40.673Z,8.75
2019-01-12T03:30:07.776Z,9.08
2019-01-12T03:32:34.489Z,8.95
2019-01-12T03:35:01.667Z,9.58
2019-01-12T03:37:28.371Z,9.25
2019-01-12T03:39:55.452Z,9.45
2019-01-12T03:42:22.226Z,10.23
2019-01-12T03:44:48.937Z,10.78
2019-01-12T03:47:16.058Z,9.83
2019-01-12T03:49:42.780Z,10.85
2019-01-12T03:52:09.468Z,11.28
2019-01-12T03:54:36.153Z,10.20
2019-01-12T03:57:02.958Z,10.53
2019-01-12T03:59:29.633Z,10.65
2019-01-12T04:01:56.684Z,11.15
2019-01-12T04:04:23.459Z,11.03
2019-01-12T04:06:51.316Z,11.95
2019-01-12T04:09:18.375Z,10.88
2019-01-12T04:11:45.088Z,9.45
2019-01-12T04:14:12.162Z,12.37
2019-01-12T04:16:38.886Z,12.35
2019-01-12T04:19:06.043Z,12.37
2019-01-12T04:21:32.727Z,12.15
2019-01-12T04:23:59.936Z,12.10
2019-01-12T04:26:27.064Z,12.88
2019-01-12T04:28:53.755Z,13.22
2019-01-12T04:31:20.874Z,13.45
2019-01-12T04:33:47.923Z,13.28
2019-01-12T04:36:14.952Z,13.50
2019-01-12T04:38:41.675Z,13.32
2019-01-12T04:41:08.764Z,14.50
2019-01-12T04:43:35.471Z,14.03
2019-01-12T04:46:02.221Z,14.18
2019-01-12T04:48:28.904Z,14.20
2019-01-12T04:50:55.567Z,14.70
2019-01-12T04:53:22.313Z,13.58
2019-01-12T04:55:49.381Z,14.40
2019-01-12T04:58:16.029Z,14.23
2019-01-12T05:00:43.484Z,12.80
2019-01-12T05:03:10.546Z,13.90
2019-01-12T05:05:37.608Z,13.18
2019-01-12T05:08:04.747Z,13.05
2019-01-12T05:10:31.767Z,13.00
2019-01-12T05:12:58.953Z,13.68
2019-01-12T05:15:26.007Z,13.18
2019-01-12T05:17:53.148Z,13.22
2019-01-12T05:20:20.301Z,14.28
2019-01-12T05:22:47.347Z,14.28
2019-01-12T05:25:14.066Z,14.10
2019-01-12T05:27:41.215Z,14.03
2019-01-12T05:30:07.870Z,14.25
2019-01-12T05:32:35.719Z,12.07
2019-01-12T05:35:03.216Z,13.78
2019-01-12T05:37:30.246Z,14.58
2019-01-12T05:39:58.103Z,13.83
2019-01-12T05:42:25.261Z,14.03
2019-01-12T05:44:51.946Z,12.73
2019-01-12T05:47:19.046Z,12.78
2019-01-12T05:49:46.303Z,12.55
2019-01-12T05:52:13.342Z,14.15
2019-01-12T05:54:40.400Z,12.98
2019-01-12T05:57:07.561Z,13.65
2019-01-12T05:59:34.595Z,13.50
2019-01-12T06:02:01.820Z,12.55
2019-01-12T06:04:28.876Z,12.33
2019-01-12T06:06:56.004Z,12.40
2019-01-12T06:09:23.100Z,13.85
2019-01-12T06:11:50.137Z,13.13
2019-01-12T06:14:17.168Z,12.53
2019-01-12T06:16:43.894Z,12.03
2019-01-12T06:19:10.624Z,13.25
2019-01-12T06:21:37.722Z,12.03
2019-01-12T06:24:04.442Z,12.33
2019-01-12T06:26:31.636Z,12.03
2019-01-12T06:28:58.339Z,13.08
2019-01-12T06:31:25.088Z,11.45
2019-01-12T06:33:52.141Z,11.97
2019-01-12T06:36:19.952Z,12.53
2019-01-12T06:38:47.835Z,10.85
2019-01-12T06:41:15.582Z,10.75
2019-01-12T06:43:43.346Z,11.80
2019-01-12T06:46:10.068Z,11.15
2019-01-12T06:48:37.853Z,11.35
2019-01-12T06:51:04.984Z,12.37
2019-01-12T06:53:31.677Z,13.65
2019-01-12T06:55:58.723Z,11.80
2019-01-12T06:58:26.536Z,11.18
2019-01-12T07:00:53.665Z,10.65
2019-01-12T07:03:23.538Z,9.50
2019-01-12T07:05:51.144Z,11.03
2019-01-12T07:08:19.171Z,9.68
2019-01-12T07:10:46.119Z,9.18
2019-01-12T07:13:13.948Z,9.43
2019-01-12T07:15:40.638Z,8.95
2019-01-12T07:18:08.971Z,8.30
2019-01-12T07:20:36.799Z,9.75
2019-01-12T07:23:03.873Z,8.70
2019-01-12T07:25:31.667Z,7.65
2019-01-12T07:27:59.508Z,8.10
2019-01-12T07:30:27.222Z,9.03
2019-01-12T07:32:54.944Z,9.15
2019-01-12T07:35:22.215Z,9.08
2019-01-12T07:37:49.358Z,9.18
2019-01-12T07:40:17.105Z,9.80
2019-01-12T07:42:44.990Z,8.40
2019-01-12T07:45:12.737Z,8.73
2019-01-12T07:47:39.801Z,8.73
2019-01-12T07:50:07.652Z,8.45
2019-01-12T07:52:34.765Z,8.00
2019-01-12T07:55:02.579Z,7.40
2019-01-12T07:57:30.305Z,8.80
2019-01-12T07:59:57.375Z,9.28
2019-01-12T08:02:25.182Z,10.72
2019-01-12T08:04:51.907Z,11.97
2019-01-12T08:07:19.007Z,11.30
2019-01-12T08:09:46.058Z,12.15
2019-01-12T08:12:13.202Z,10.28
2019-01-12T08:14:40.228Z,9.95
2019-01-12T08:17:07.300Z,9.13
2019-01-12T08:19:34.005Z,9.35
2019-01-12T08:22:01.640Z,10.18
2019-01-12T08:24:28.755Z,9.35
2019-01-12T08:26:56.514Z,9.80
2019-01-12T08:29:23.190Z,9.75
2019-01-12T08:31:50.331Z,9.18
2019-01-12T08:34:17.038Z,9.35
2019-01-12T08:36:43.753Z,8.00
2019-01-12T08:39:10.949Z,7.97
2019-01-12T08:41:37.955Z,7.72
2019-01-12T08:44:04.877Z,9.00
2019-01-12T08:46:32.082Z,7.35
2019-01-12T08:48:58.771Z,8.65
2019-01-12T08:51:25.849Z,9.30
2019-01-12T08:53:52.598Z,9.93
2019-01-12T08:56:19.655Z,9.83
2019-01-12T08:58:46.311Z,9.40
2019-01-12T09:01:13.106Z,9.20
2019-01-12T09:03:39.818Z,9.70
2019-01-12T09:06:06.501Z,9.75
2019-01-12T09:08:33.564Z,10.58
2019-01-12T09:11:00.291Z,10.53
2019-01-12T09:13:26.958Z,9.75
2019-01-12T09:15:53.717Z,10.65
2019-01-12T09:18:20.373Z,9.80
2019-01-12T09:20:49.350Z,10.72
2019-01-12T09:23:16.462Z,10.75
2019-01-12T09:25:43.275Z,12.03
2019-01-12T09:28:10.385Z,11.43
2019-01-12T09:30:37.215Z,13.90
2019-01-12T09:33:04.294Z,10.78
2019-01-12T09:35:31.464Z,11.57
2019-01-12T09:37:58.671Z,12.60
2019-01-12T09:40:25.829Z,12.15
2019-01-12T09:42:52.951Z,10.20
2019-01-12T09:45:20.107Z,10.50
2019-01-12T09:47:46.838Z,10.20
2019-01-12T09:50:13.539Z,11.63
2019-01-12T09:52:40.277Z,11.70
2019-01-12T09:55:07.371Z,11.25
2019-01-12T09:57:34.207Z,10.28
2019-01-12T10:00:00.944Z,9.75
2019-01-12T10:02:27.649Z,9.93
2019-01-12T10:04:54.314Z,11.63
2019-01-12T10:07:21.079Z,12.03
2019-01-12T10:09:48.044Z,10.00
2019-01-12T10:12:14.816Z,9.75
2019-01-12T10:14:41.910Z,9.28
2019-01-12T10:17:09.086Z,8.63
2019-01-12T10:19:35.760Z,9.28
2019-01-12T10:22:02.932Z,6.85
2019-01-12T10:24:29.654Z,7.30
2019-01-12T10:26:58.665Z,7.12
2019-01-12T10:29:25.111Z,7.00
2019-01-12T10:31:52.212Z,6.55
2019-01-12T10:34:19.422Z,6.75
2019-01-12T10:36:46.170Z,5.78
2019-01-12T10:39:17.892Z,6.35
2019-01-12T10:41:41.582Z,5.78
2019-01-12T10:44:08.635Z,7.12
2019-01-12T10:46:35.664Z,6.83
2019-01-12T10:49:02.837Z,7.75
2019-01-12T10:51:29.583Z,9.33
2019-01-12T10:53:57.395Z,8.75
2019-01-12T10:56:24.600Z,10.32
2019-01-12T10:58:51.314Z,7.92
2019-01-12T11:01:17.955Z,9.03
2019-01-12T11:03:44.681Z,9.33
2019-01-12T11:06:11.367Z,8.23
2019-01-12T11:08:38.514Z,9.23
2019-01-12T11:11:05.652Z,10.63
2019-01-12T11:13:32.841Z,10.48
2019-01-12T11:15:59.965Z,9.45
2019-01-12T11:18:27.125Z,10.30
2019-01-12T11:20:54.929Z,11.05
2019-01-12T11:23:24.726Z,10.48
2019-01-12T11:25:51.451Z,11.93
2019-01-12T11:28:18.642Z,11.93
2019-01-12T11:30:45.482Z,10.05
2019-01-12T11:33:12.705Z,10.18
2019-01-12T11:35:40.499Z,10.55
2019-01-12T11:38:07.550Z,10.43
2019-01-12T11:40:35.248Z,10.88
2019-01-12T11:43:03.063Z,11.10
2019-01-12T11:45:30.719Z,9.85
2019-01-12T11:47:58.587Z,10.23
2019-01-12T11:50:26.375Z,9.75
2019-01-12T11:52:53.481Z,10.10
2019-01-12T11:55:20.611Z,11.12
2019-01-12T11:57:47.789Z,11.80
2019-01-12T12:00:15.473Z,9.83
2019-01-12T12:02:42.566Z,9.88
2019-01-12T12:05:09.731Z,10.65
2019-01-12T12:07:37.817Z,8.40
2019-01-12T12:10:05.505Z,8.83
2019-01-12T12:12:32.274Z,9.00
2019-01-12T12:14:59.466Z,8.60
2019-01-12T12:17:27.239Z,7.42
2019-01-12T12:19:55.018Z,6.55
2019-01-12T12:22:22.342Z,8.40
2019-01-12T12:24:50.163Z,6.97
2019-01-12T12:27:17.256Z,6.45
2019-01-12T12:29:44.003Z,7.47
2019-01-12T12:32:11.160Z,6.37
2019-01-12T12:34:38.116Z,5.90
2019-01-12T12:37:05.263Z,5.92
2019-01-12T12:39:31.926Z,6.12
2019-01-12T12:41:58.997Z,6.08
2019-01-12T12:44:26.165Z,6.42
2019-01-12T12:46:53.253Z,5.75
2019-01-12T12:49:19.971Z,6.87
2019-01-12T12:51:46.720Z,8.58
2019-01-12T12:54:13.565Z,5.55
2019-01-12T12:56:40.623Z,4.70
2019-01-12T12:59:07.421Z,5.28
2019-01-12T13:01:34.095Z,6.17
2019-01-12T13:04:00.746Z,7.28
2019-01-12T13:06:28.166Z,8.20
2019-01-12T13:08:55.228Z,10.03
2019-01-12T13:11:22.274Z,8.13
2019-01-12T13:13:48.989Z,7.65
2019-01-12T13:16:24.795Z,9.63
2019-01-12T13:18:51.920Z,9.70
2019-01-12T13:21:19.121Z,9.65
2019-01-12T13:23:45.800Z,9.73
2019-01-12T13:26:12.728Z,10.48
2019-01-12T13:28:39.824Z,10.65
2019-01-12T13:31:06.497Z,8.65
2019-01-12T13:33:33.169Z,9.00
2019-01-12T13:36:00.103Z,10.15
2019-01-12T13:38:27.287Z,9.18
2019-01-12T13:40:54.438Z,8.48
2019-01-12T13:43:21.544Z,7.10
2019-01-12T13:45:48.593Z,6.35
2019-01-12T13:48:15.771Z,6.17
2019-01-12T13:50:42.808Z,6.58
2019-01-12T13:53:09.857Z,7.42
2019-01-12T13:55:37.785Z,7.28
2019-01-12T13:58:04.425Z,8.28
2019-01-12T14:00:31.569Z,8.40
2019-01-12T14:02:58.333Z,8.50
2019-01-12T14:05:25.051Z,10.63
2019-01-12T14:07:56.146Z,8.43
2019-01-12T14:10:20.139Z,7.78
2019-01-12T14:12:47.263Z,7.15
2019-01-12T14:15:16.902Z,7.45
2019-01-12T14:17:44.782Z,9.00
2019-01-12T14:20:12.548Z,10.00
2019-01-12T14:22:39.703Z,11.73
2019-01-12T14:25:07.568Z,12.47
2019-01-12T14:27:34.709Z,11.30
2019-01-12T14:30:02.557Z,12.93
2019-01-12T14:32:35.041Z,12.78
2019-01-12T14:35:02.096Z,14.13
2019-01-12T14:37:29.880Z,13.32
2019-01-12T14:39:57.732Z,12.35
2019-01-12T14:42:25.507Z,13.03
2019-01-12T14:44:53.694Z,14.15
2019-01-12T14:47:20.762Z,15.38
2019-01-12T14:49:48.575Z,15.23
2019-01-12T14:52:15.802Z,13.43
2019-01-12T14:54:43.616Z,13.55
2019-01-12T14:57:11.402Z,13.30
2019-01-12T14:59:39.251Z,11.78
2019-01-12T15:02:06.400Z,12.07
2019-01-12T15:04:33.506Z,13.80
2019-01-12T15:07:00.240Z,12.50
2019-01-12T15:09:27.145Z,11.22
2019-01-12T15:11:53.920Z,12.43
2019-01-12T15:14:21.074Z,13.88
2019-01-12T15:16:48.133Z,12.65
2019-01-12T15:19:14.786Z,12.90
2019-01-12T15:21:42.701Z,13.48
2019-01-12T15:24:10.303Z,13.40
2019-01-12T15:26:37.495Z,11.95
2019-01-12T15:29:04.591Z,14.23
2019-01-12T15:31:32.420Z,13.30
2019-01-12T15:33:59.609Z,14.80
2019-01-12T15:36:27.439Z,12.25
2019-01-12T15:38:56.089Z,13.53
2019-01-12T15:41:23.982Z,13.72
2019-01-12T15:43:51.095Z,15.50
2019-01-12T15:46:18.912Z,15.20
2019-01-12T15:48:47.469Z,12.47
2019-01-12T15:51:14.602Z,13.58
2019-01-12T15:53:42.371Z,12.82
2019-01-12T15:56:10.270Z,14.63
2019-01-12T15:58:39.145Z,13.05
2019-01-12T16:01:06.910Z,12.70
2019-01-12T16:03:34.797Z,13.48
2019-01-12T16:06:01.905Z,12.13
2019-01-12T16:08:29.690Z,14.15
2019-01-12T16:10:57.579Z,11.50
2019-01-12T16:13:24.670Z,10.95
2019-01-12T16:15:52.459Z,10.05
2019-01-12T16:18:19.596Z,9.38
2019-01-12T16:20:47.377Z,9.28
2019-01-12T16:23:15.138Z,9.63
2019-01-12T16:25:43.956Z,10.53
2019-01-12T16:28:12.757Z,10.10
2019-01-12T16:30:39.913Z,11.93
2019-01-12T16:33:07.043Z,12.18
2019-01-12T16:35:34.209Z,12.93
2019-01-12T16:38:02.158Z,12.95
2019-01-12T16:40:29.916Z,13.83
2019-01-12T16:42:58.632Z,12.03
2019-01-12T16:45:26.453Z,13.08
2019-01-12T16:47:53.518Z,13.60
2019-01-12T16:50:20.549Z,14.45
2019-01-12T16:52:47.777Z,15.50
2019-01-12T16:55:14.822Z,15.70
2019-01-12T16:57:41.924Z,14.10
2019-01-12T17:00:09.881Z,15.25
2019-01-12T17:02:36.607Z,13.15
2019-01-12T17:05:04.419Z,16.23
2019-01-12T17:07:31.650Z,16.42
2019-01-12T17:09:58.929Z,13.62
2019-01-12T17:12:26.641Z,14.53
2019-01-12T17:14:54.528Z,15.88
2019-01-12T17:17:22.308Z,17.23
2019-01-12T17:19:49.422Z,15.40
2019-01-12T17:22:17.194Z,15.80
2019-01-12T17:24:44.914Z,14.07
2019-01-12T17:27:13.251Z,16.35
2019-01-12T17:29:40.688Z,15.90
2019-01-12T17:32:07.830Z,15.65
2019-01-12T17:34:35.621Z,15.80
2019-01-12T17:37:02.728Z,15.55
2019-01-12T17:39:30.472Z,14.87
2019-01-12T17:41:57.688Z,15.30
2019-01-12T17:44:24.797Z,14.68
2019-01-12T17:46:51.455Z,14.53
2019-01-12T17:49:18.908Z,13.93
2019-01-12T17:51:45.628Z,15.78
2019-01-12T17:54:12.673Z,15.98
2019-01-12T17:56:39.818Z,16.05
2019-01-12T17:59:06.984Z,15.15
2019-01-12T18:01:33.670Z,15.08
2019-01-12T18:04:00.431Z,17.35
2019-01-12T18:06:28.332Z,15.28
2019-01-12T18:08:56.133Z,15.95
2019-01-12T18:11:23.898Z,17.40
2019-01-12T18:13:51.005Z,15.53
2019-01-12T18:16:18.184Z,16.12
2019-01-12T18:18:45.954Z,16.93
2019-01-12T18:21:27.870Z,15.53
2019-01-12T18:23:47.244Z,16.35
2019-01-12T18:26:14.336Z,15.20
2019-01-12T18:28:42.165Z,14.93
2019-01-12T18:31:11.689Z,15.45
2019-01-12T18:33:41.596Z,14.05
2019-01-12T18:36:09.556Z,13.68
2019-01-12T18:38:37.278Z,13.65
2019-01-12T18:41:04.408Z,15.15
2019-01-12T18:43:32.309Z,12.55
2019-01-12T18:46:01.276Z,15.00
2019-01-12T18:48:28.434Z,13.80
2019-01-12T18:50:56.318Z,14.15
2019-01-12T18:53:23.457Z,14.43
2019-01-12T18:55:51.191Z,13.48
2019-01-12T18:58:19.003Z,13.58
2019-01-12T19:00:46.956Z,13.32
2019-01-12T19:03:14.824Z,12.65
2019-01-12T19:05:42.712Z,11.30
2019-01-12T19:08:09.807Z,12.25
2019-01-12T19:10:37.832Z,12.28
2019-01-12T19:13:04.566Z,12.13
2019-01-12T19:15:32.523Z,11.55
2019-01-12T19:17:59.744Z,11.38
2019-01-12T19:20:27.650Z,10.88
2019-01-12T19:22:54.744Z,11.10
2019-01-12T19:25:22.397Z,12.30
2019-01-12T19:27:50.114Z,12.53
2019-01-12T19:30:17.324Z,12.03
2019-01-12T19:32:44.497Z,12.68
2019-01-12T19:35:11.841Z,12.33
2019-01-12T19:37:39.757Z,11.90
2019-01-12T19:40:07.517Z,12.18
2019-01-12T19:42:35.209Z,10.93
2019-01-12T19:45:03.258Z,11.03
2019-01-12T19:47:31.021Z,12.90
2019-01-12T19:50:00.016Z,12.45
2019-01-12T19:52:27.127Z,12.40
2019-01-12T19:54:54.261Z,9.45
2019-01-12T19:57:22.062Z,9.98
2019-01-12T19:59:49.246Z,11.28
2019-01-12T20:02:16.889Z,11.10
2019-01-12T20:04:44.747Z,11.15
2019-01-12T20:07:12.652Z,10.63
2019-01-12T20:09:40.795Z,11.40
2019-01-12T20:12:08.675Z,10.28
2019-01-12T20:14:37.842Z,11.80
2019-01-12T20:17:08.239Z,10.82
2019-01-12T20:19:34.994Z,13.40
2019-01-12T20:22:02.986Z,10.35
2019-01-12T20:24:31.546Z,10.75
2019-01-12T20:27:02.174Z,11.95
2019-01-12T20:29:29.171Z,11.57
2019-01-12T20:31:57.342Z,11.18
2019-01-12T20:34:24.306Z,12.20
2019-01-12T20:36:54.030Z,11.20
2019-01-12T20:39:23.304Z,13.08
2019-01-12T20:41:59.012Z,11.33
2019-01-12T20:44:26.926Z,11.85
2019-01-12T20:46:53.566Z,13.43
2019-01-12T20:49:21.316Z,11.43
2019-01-12T20:51:48.441Z,9.13
2019-01-12T20:54:15.126Z,14.50
2019-01-12T20:56:43.096Z,13.03
2019-01-12T20:59:11.029Z,10.65
2019-01-12T21:01:38.750Z,10.58
2019-01-12T21:04:07.805Z,9.25
2019-01-12T21:06:34.945Z,8.88
2019-01-12T21:09:05.111Z,9.63
2019-01-12T21:11:31.690Z,7.95
2019-01-12T21:14:00.074Z,8.03
2019-01-12T21:16:28.684Z,7.17
2019-01-12T21:18:55.885Z,8.35
2019-01-12T21:21:24.206Z,9.30
2019-01-12T21:23:51.201Z,8.80
2019-01-12T21:26:19.326Z,8.53
2019-01-12T21:28:46.275Z,6.03
2019-01-12T21:31:13.930Z,8.68
2019-01-12T21:33:40.975Z,10.63
2019-01-12T21:36:08.129Z,7.92
2019-01-12T21:38:34.809Z,8.90
2019-01-12T21:41:02.472Z,7.80
2019-01-12T21:43:29.485Z,6.42
2019-01-12T21:45:56.558Z,7.25
2019-01-12T21:48:24.496Z,7.50
2019-01-12T21:50:51.626Z,6.70
2019-01-12T21:53:19.904Z,6.97
2019-01-12T21:55:46.954Z,7.20
2019-01-12T21:58:14.778Z,7.45
2019-01-12T22:00:42.650Z,8.33
2019-01-12T22:03:09.681Z,6.62
2019-01-12T22:05:37.627Z,6.60
2019-01-12T22:08:04.731Z,6.50
2019-01-12T22:10:32.038Z,7.50
2019-01-12T22:12:58.715Z,7.40
2019-01-12T22:15:27.569Z,7.78
2019-01-12T22:17:54.663Z,9.60
2019-01-12T22:20:22.349Z,8.00
2019-01-12T22:22:50.004Z,8.63
2019-01-12T22:25:17.466Z,7.12
2019-01-12T22:27:45.258Z,7.80
2019-01-12T22:30:12.909Z,6.60
2019-01-12T22:32:40.679Z,7.37
2019-01-12T22:35:07.802Z,7.00
2019-01-12T22:37:34.828Z,7.47
2019-01-12T22:40:01.964Z,9.73
2019-01-12T22:42:31.043Z,6.83
2019-01-12T22:44:58.057Z,6.37
2019-01-12T22:47:25.105Z,6.47
2019-01-12T22:49:52.348Z,8.03
2019-01-12T22:52:18.997Z,7.80
2019-01-12T22:54:45.991Z,5.30
2019-01-12T22:57:13.118Z,8.23
2019-01-12T22:59:40.193Z,7.17
2019-01-12T23:02:07.211Z,7.90
2019-01-12T23:04:34.578Z,7.47
2019-01-12T23:07:01.615Z,9.48
2019-01-12T23:09:28.739Z,5.92
2019-01-12T23:11:55.912Z,6.92
2019-01-12T23:14:23.034Z,8.75
2019-01-12T23:16:50.216Z,7.75
2019-01-12T23:19:17.446Z,7.58
2019-01-12T23:21:45.425Z,6.85
2019-01-12T23:24:13.229Z,7.12
2019-01-12T23:26:41.036Z,10.18
2019-01-12T23:29:08.821Z,7.67
2019-01-12T23:31:36.382Z,7.85
2019-01-12T23:34:03.406Z,5.72
2019-01-12T23:36:30.991Z,7.12
2019-01-12T23:38:58.935Z,6.28
2019-01-12T23:41:26.556Z,6.75
2019-01-12T23:43:53.713Z,5.25
2019-01-12T23:46:20.444Z,6.37
2019-01-12T23:48:47.545Z,6.10
2019-01-12T23:51:16.871Z,5.70
2019-01-12T23:53:44.009Z,4.90
2019-01-12T23:56:10.949Z,4.55
2019-01-12T23:58:39.176Z,2.77
